createdAt,value
2018-07-09T00:01:28.391Z,18.10
2018-07-09T00:03:57.150Z,18.00
2018-07-09T00:06:25.954Z,18.00
2018-07-09T00:08:54.881Z,17.90
2018-07-09T00:11:23.661Z,17.90
2018-07-09T00:13:52.790Z,17.90
2018-07-09T00:16:21.497Z,17.80
2018-07-09T00:18:50.221Z,17.80
2018-07-09T00:21:19.165Z,17.80
2018-07-09T00:23:47.898Z,17.70
2018-07-09T00:26:16.712Z,17.70
2018-07-09T00:28:45.598Z,17.70
2018-07-09T00:33:42.849Z,17.60
2018-07-09T00:36:11.715Z,17.60
2018-07-09T00:38:40.644Z,17.50
2018-07-09T00:43:38.061Z,17.50
2018-07-09T00:46:06.875Z,17.40
2018-07-09T00:48:35.682Z,17.40
2018-07-09T00:51:04.600Z,17.40
2018-07-09T00:53:33.225Z,17.30
2018-07-09T00:56:01.985Z,17.30
2018-07-09T00:58:30.813Z,17.20
2018-07-09T01:00:59.577Z,17.20
2018-07-09T01:03:28.297Z,17.20
2018-07-09T01:05:57.333Z,17.10
2018-07-09T01:08:26.298Z,17.10
2018-07-09T01:11:06.665Z,17.10
2018-07-09T01:13:43.457Z,17.10
2018-07-09T01:16:12.572Z,17.00
2018-07-09T01:18:41.754Z,16.90
2018-07-09T01:21:12.598Z,16.90
2018-07-09T01:23:41.572Z,16.80
2018-07-09T01:26:10.349Z,16.80
2018-07-09T01:28:40.273Z,16.80
2018-07-09T01:31:09.126Z,16.70
2018-07-09T01:33:37.986Z,16.70
2018-07-09T01:36:07.031Z,16.70
2018-07-09T01:38:35.808Z,16.70
2018-07-09T01:41:04.657Z,16.60
2018-07-09T01:43:33.371Z,16.50
2018-07-09T01:46:02.267Z,16.50
2018-07-09T01:48:31.133Z,16.40
2018-07-09T01:50:59.977Z,16.30
2018-07-09T01:55:57.453Z,16.30
2018-07-09T01:58:26.225Z,16.20
2018-07-09T02:00:55.038Z,16.20
2018-07-09T02:05:52.610Z,16.20
2018-07-09T02:08:21.476Z,16.20
2018-07-09T02:10:50.283Z,16.20
2018-07-09T02:13:19.357Z,16.20
2018-07-09T02:15:53.844Z,16.20
2018-07-09T02:18:28.197Z,16.20
2018-07-09T02:21:02.518Z,16.10
2018-07-09T02:23:36.998Z,16.10
2018-07-09T02:26:06.839Z,16.10
2018-07-09T02:28:35.637Z,16.00
2018-07-09T02:31:04.580Z,16.00
2018-07-09T02:33:33.458Z,16.00
2018-07-09T02:36:02.210Z,16.00
2018-07-09T02:38:30.996Z,15.90
2018-07-09T02:40:59.866Z,15.90
2018-07-09T02:43:28.670Z,15.90
2018-07-09T02:48:26.011Z,15.80
2018-07-09T02:50:54.740Z,15.80
2018-07-09T02:53:23.532Z,15.80
2018-07-09T02:55:52.369Z,15.70
2018-07-09T02:58:21.258Z,15.70
2018-07-09T03:00:50.094Z,15.70
2018-07-09T03:03:18.708Z,15.60
2018-07-09T03:05:47.508Z,15.60
2018-07-09T03:08:16.337Z,15.60
2018-07-09T03:10:45.149Z,15.60
2018-07-09T03:13:13.978Z,15.60
2018-07-09T03:15:42.804Z,15.60
2018-07-09T03:18:11.677Z,15.60
2018-07-09T03:20:40.526Z,15.60
2018-07-09T03:23:09.342Z,15.50
2018-07-09T03:25:38.145Z,15.50
2018-07-09T03:28:07.029Z,15.40
2018-07-09T03:30:35.761Z,15.40
2018-07-09T03:33:04.597Z,15.40
2018-07-09T03:35:33.365Z,15.40
2018-07-09T03:38:02.233Z,15.40
2018-07-09T03:40:31.409Z,15.40
2018-07-09T03:43:00.197Z,15.30
2018-07-09T03:45:28.968Z,15.30
2018-07-09T03:50:49.049Z,15.30
2018-07-09T03:53:17.774Z,15.30
2018-07-09T03:55:46.598Z,15.30
2018-07-09T03:58:15.540Z,15.30
2018-07-09T04:00:44.285Z,15.30
2018-07-09T04:03:13.053Z,15.20
2018-07-09T04:05:41.930Z,15.20
2018-07-09T04:08:10.750Z,15.30
2018-07-09T04:10:39.534Z,15.30
2018-07-09T04:13:08.305Z,15.30
2018-07-09T04:15:37.081Z,15.30
2018-07-09T04:18:05.966Z,15.30
2018-07-09T04:20:34.729Z,15.30
2018-07-09T04:23:03.625Z,15.30
2018-07-09T04:25:32.457Z,15.40
2018-07-09T04:28:01.301Z,15.40
2018-07-09T04:30:30.249Z,15.50
2018-07-09T04:32:59.074Z,15.50
2018-07-09T04:35:27.850Z,15.50
2018-07-09T04:37:56.886Z,15.50
2018-07-09T04:40:25.747Z,15.50
2018-07-09T04:42:54.454Z,15.40
2018-07-09T04:45:24.274Z,15.30
2018-07-09T04:47:53.134Z,15.30
2018-07-09T04:50:21.938Z,15.30
2018-07-09T04:55:19.463Z,15.40
2018-07-09T04:57:48.262Z,15.50
2018-07-09T05:00:17.129Z,15.50
2018-07-09T05:02:45.917Z,15.60
2018-07-09T05:07:44.286Z,15.70
2018-07-09T05:10:13.092Z,15.80
2018-07-09T05:12:41.846Z,15.80
2018-07-09T05:15:10.571Z,15.90
2018-07-09T05:17:39.361Z,16.00
2018-07-09T05:20:08.229Z,16.00
2018-07-09T05:22:36.998Z,16.10
2018-07-09T05:25:05.789Z,16.10
2018-07-09T05:27:34.580Z,16.10
2018-07-09T05:30:03.370Z,16.20
2018-07-09T05:35:00.601Z,16.20
2018-07-09T05:37:29.470Z,16.30
2018-07-09T05:39:58.188Z,16.30
2018-07-09T05:42:26.886Z,16.40
2018-07-09T05:44:55.616Z,16.40
2018-07-09T05:47:24.514Z,16.50
2018-07-09T05:52:21.870Z,16.50
2018-07-09T05:54:50.654Z,16.50
2018-07-09T05:57:19.444Z,16.60
2018-07-09T05:59:54.969Z,16.60
2018-07-09T06:02:23.733Z,16.70
2018-07-09T06:04:52.625Z,16.80
2018-07-09T06:07:28.915Z,16.80
2018-07-09T06:09:57.897Z,16.90
2018-07-09T06:12:35.805Z,17.00
2018-07-09T06:15:06.110Z,17.10
2018-07-09T06:17:36.566Z,17.20
2018-07-09T06:20:05.923Z,17.30
2018-07-09T06:22:39.053Z,17.40
2018-07-09T06:25:07.805Z,17.50
2018-07-09T06:27:51.200Z,17.70
2018-07-09T06:30:19.930Z,17.70
2018-07-09T06:32:48.757Z,17.90
2018-07-09T06:35:17.625Z,18.00
2018-07-09T06:37:52.574Z,18.00
2018-07-09T06:40:21.447Z,18.10
2018-07-09T06:42:52.352Z,18.20
2018-07-09T06:45:22.489Z,18.20
2018-07-09T06:47:51.303Z,18.30
2018-07-09T06:50:20.051Z,18.40
2018-07-09T06:52:48.761Z,18.40
2018-07-09T06:55:17.581Z,18.40
2018-07-09T06:57:46.449Z,18.50
2018-07-09T07:00:15.314Z,18.50
2018-07-09T07:02:44.206Z,18.60
2018-07-09T07:05:12.984Z,18.70
2018-07-09T07:07:41.782Z,18.80
2018-07-09T07:10:10.644Z,18.80
2018-07-09T07:12:39.474Z,18.90
2018-07-09T07:15:08.301Z,19.00
2018-07-09T07:17:37.087Z,19.10
2018-07-09T07:20:05.918Z,19.10
2018-07-09T07:22:34.937Z,19.10
2018-07-09T07:25:03.758Z,19.20
2018-07-09T07:27:39.221Z,19.20
2018-07-09T07:30:15.629Z,19.20
2018-07-09T07:32:45.535Z,19.30
2018-07-09T07:35:14.373Z,19.30
2018-07-09T07:37:47.156Z,19.40
2018-07-09T07:40:21.185Z,19.40
2018-07-09T07:42:52.125Z,19.40
2018-07-09T07:45:20.881Z,19.50
2018-07-09T07:47:49.737Z,19.60
2018-07-09T07:50:18.583Z,19.60
2018-07-09T07:52:51.401Z,19.70
2018-07-09T07:55:20.262Z,19.70
2018-07-09T07:57:54.978Z,19.70
2018-07-09T08:00:23.857Z,19.80
2018-07-09T08:02:52.655Z,19.80
2018-07-09T08:05:21.501Z,19.80
2018-07-09T08:07:50.378Z,19.80
2018-07-09T08:10:19.195Z,19.90
2018-07-09T08:13:01.006Z,20.00
2018-07-09T08:15:27.671Z,20.00
2018-07-09T08:17:57.537Z,20.00
2018-07-09T08:20:26.361Z,20.10
2018-07-09T08:22:55.253Z,20.10
2018-07-09T08:25:24.084Z,20.20
2018-07-09T08:27:53.166Z,20.20
2018-07-09T08:30:21.877Z,20.30
2018-07-09T08:32:50.683Z,20.30
2018-07-09T08:35:19.446Z,20.30
2018-07-09T08:37:49.483Z,20.40
2018-07-09T08:40:18.441Z,20.40
2018-07-09T08:42:47.674Z,20.40
2018-07-09T08:45:16.437Z,20.40
2018-07-09T08:47:45.218Z,20.50
2018-07-09T08:50:14.049Z,20.50
2018-07-09T08:52:43.801Z,20.60
2018-07-09T08:55:12.614Z,20.70
2018-07-09T08:57:47.670Z,20.70
2018-07-09T09:00:16.442Z,20.80
2018-07-09T09:02:51.630Z,20.90
2018-07-09T09:05:20.457Z,20.90
2018-07-09T09:07:49.246Z,20.90
2018-07-09T09:10:23.179Z,21.00
2018-07-09T09:12:52.174Z,21.00
2018-07-09T09:15:20.862Z,21.10
2018-07-09T09:17:49.646Z,21.20
2018-07-09T09:20:22.411Z,21.30
2018-07-09T09:22:51.830Z,21.20
2018-07-09T09:25:20.877Z,21.30
2018-07-09T09:27:55.641Z,21.40
2018-07-09T09:30:24.452Z,21.40
2018-07-09T09:32:53.117Z,21.50
2018-07-09T09:35:21.961Z,21.50
2018-07-09T09:37:50.713Z,21.50
2018-07-09T09:40:23.661Z,21.60
2018-07-09T09:42:52.481Z,21.60
2018-07-09T09:45:21.253Z,21.60
2018-07-09T09:47:56.689Z,21.70
2018-07-09T09:50:25.533Z,21.80
2018-07-09T09:55:22.852Z,21.90
2018-07-09T09:57:51.623Z,22.00
2018-07-09T10:00:27.421Z,22.00
2018-07-09T10:02:56.269Z,22.10
2018-07-09T10:05:25.156Z,22.20
2018-07-09T10:07:53.912Z,22.10
2018-07-09T10:10:29.427Z,22.20
2018-07-09T10:12:58.190Z,22.30
2018-07-09T10:15:27.089Z,22.30
2018-07-09T10:18:01.814Z,22.30
2018-07-09T10:20:30.766Z,22.30
2018-07-09T10:22:59.621Z,22.30
2018-07-09T10:25:28.385Z,22.40
2018-07-09T10:27:57.066Z,22.50
2018-07-09T10:30:25.942Z,22.60
2018-07-09T10:32:54.661Z,22.70
2018-07-09T10:35:23.517Z,22.80
2018-07-09T10:37:52.509Z,22.80
2018-07-09T10:40:21.314Z,22.90
2018-07-09T10:42:50.197Z,23.00
2018-07-09T10:45:18.966Z,23.00
2018-07-09T10:47:47.665Z,23.10
2018-07-09T10:50:16.424Z,23.10
2018-07-09T10:52:45.225Z,23.10
2018-07-09T10:55:13.978Z,23.30
2018-07-09T10:57:42.876Z,23.30
2018-07-09T11:00:11.936Z,23.40
2018-07-09T11:02:40.752Z,23.40
2018-07-09T11:05:09.578Z,23.50
2018-07-09T11:07:38.412Z,23.60
2018-07-09T11:10:14.993Z,23.60
2018-07-09T11:12:43.790Z,23.50
2018-07-09T11:17:41.130Z,23.60
2018-07-09T11:20:09.984Z,23.80
2018-07-09T11:22:38.661Z,23.80
2018-07-09T11:25:07.485Z,23.80
2018-07-09T11:27:40.073Z,23.80
2018-07-09T11:30:08.902Z,23.90
2018-07-09T11:32:37.686Z,23.70
2018-07-09T11:35:06.389Z,23.70
2018-07-09T11:37:35.169Z,23.90
2018-07-09T11:40:04.036Z,24.00
2018-07-09T11:42:32.906Z,24.10
2018-07-09T11:45:08.356Z,24.20
2018-07-09T11:47:37.163Z,24.30
2018-07-09T11:50:18.408Z,24.50
2018-07-09T11:52:47.238Z,24.50
2018-07-09T11:55:29.757Z,24.50
2018-07-09T11:57:58.588Z,24.60
2018-07-09T12:00:27.477Z,24.70
2018-07-09T12:02:56.374Z,24.70
2018-07-09T12:05:34.982Z,24.70
2018-07-09T12:08:03.804Z,24.60
2018-07-09T12:10:32.930Z,24.60
2018-07-09T12:13:01.674Z,24.60
2018-07-09T12:15:30.761Z,24.60
2018-07-09T12:17:59.585Z,24.60
2018-07-09T12:20:28.423Z,24.60
2018-07-09T12:22:57.198Z,24.60
2018-07-09T12:25:25.995Z,24.70
2018-07-09T12:27:54.862Z,24.90
2018-07-09T12:30:23.713Z,24.90
2018-07-09T12:32:52.673Z,24.90
2018-07-09T12:35:21.430Z,24.90
2018-07-09T12:37:50.230Z,24.90
2018-07-09T12:40:19.277Z,25.00
2018-07-09T12:42:48.090Z,25.00
2018-07-09T12:45:16.921Z,25.00
2018-07-09T12:47:53.253Z,25.10
2018-07-09T12:50:22.061Z,25.20
2018-07-09T12:52:50.909Z,25.20
2018-07-09T12:55:19.697Z,25.30
2018-07-09T12:57:48.509Z,25.40
2018-07-09T13:00:17.449Z,25.50
2018-07-09T13:02:46.209Z,25.60
2018-07-09T13:05:15.026Z,25.70
2018-07-09T13:07:43.934Z,25.80
2018-07-09T13:10:12.730Z,25.80
2018-07-09T13:12:41.541Z,25.80
2018-07-09T13:15:15.197Z,25.70
2018-07-09T13:17:43.989Z,25.80
2018-07-09T13:20:12.853Z,25.90
2018-07-09T13:22:42.768Z,26.10
2018-07-09T13:25:11.557Z,26.30
2018-07-09T13:27:40.329Z,26.40
2018-07-09T13:30:09.054Z,26.40
2018-07-09T13:32:38.029Z,26.30
2018-07-09T13:35:07.879Z,26.20
2018-07-09T13:37:36.657Z,26.00
2018-07-09T13:40:05.543Z,26.00
2018-07-09T13:42:34.410Z,26.00
2018-07-09T13:45:03.146Z,26.10
2018-07-09T13:47:33.213Z,26.30
2018-07-09T13:50:01.981Z,26.50
2018-07-09T13:52:30.722Z,26.70
2018-07-09T13:54:59.893Z,26.70
2018-07-09T13:57:28.861Z,26.70
2018-07-09T13:59:57.649Z,26.70
2018-07-09T14:02:26.386Z,26.60
2018-07-09T14:04:55.232Z,26.40
2018-07-09T14:07:24.054Z,26.40
2018-07-09T14:09:52.872Z,26.40
2018-07-09T14:12:21.793Z,26.50
2018-07-09T14:14:50.497Z,26.50
2018-07-09T14:17:19.349Z,26.40
2018-07-09T14:20:26.846Z,26.30
2018-07-09T14:22:56.241Z,26.00
2018-07-09T14:25:25.055Z,25.80
2018-07-09T14:27:53.854Z,25.80
2018-07-09T14:30:22.691Z,26.10
2018-07-09T14:32:51.536Z,26.40
2018-07-09T14:35:20.260Z,26.70
2018-07-09T14:37:49.049Z,26.90
2018-07-09T14:40:17.813Z,27.10
2018-07-09T14:42:53.258Z,27.30
2018-07-09T14:45:22.277Z,27.40
2018-07-09T14:47:51.049Z,27.30
2018-07-09T14:50:19.821Z,27.30
2018-07-09T14:52:48.552Z,27.10
2018-07-09T14:55:17.285Z,26.90
2018-07-09T14:57:46.051Z,26.90
2018-07-09T15:00:14.993Z,26.90
2018-07-09T15:02:43.733Z,26.60
2018-07-09T15:05:12.506Z,26.20
2018-07-09T15:07:42.465Z,26.10
2018-07-09T15:10:11.361Z,26.20
2018-07-09T15:12:40.173Z,26.50
2018-07-09T15:15:08.965Z,26.60
2018-07-09T15:17:37.785Z,26.70
2018-07-09T15:20:06.673Z,26.80
2018-07-09T15:22:35.388Z,26.90
2018-07-09T15:25:10.333Z,27.10
2018-07-09T15:27:39.426Z,27.00
2018-07-09T15:30:08.293Z,26.90
2018-07-09T15:32:37.007Z,26.70
2018-07-09T15:35:05.844Z,26.60
2018-07-09T15:37:43.394Z,26.50
2018-07-09T15:40:12.165Z,26.50
2018-07-09T15:42:40.948Z,26.70
2018-07-09T15:45:09.661Z,26.70
2018-07-09T15:47:39.578Z,26.80
2018-07-09T15:50:11.515Z,27.00
2018-07-09T15:52:43.273Z,27.00
2018-07-09T15:55:12.098Z,27.00
2018-07-09T15:57:43.970Z,26.90
2018-07-09T16:00:12.742Z,27.10
2018-07-09T16:02:41.437Z,27.60
2018-07-09T16:05:15.710Z,27.70
2018-07-09T16:07:44.464Z,27.50
2018-07-09T16:10:13.299Z,27.20
2018-07-09T16:12:45.174Z,27.00
2018-07-09T16:15:13.924Z,26.80
2018-07-09T16:17:42.893Z,26.70
2018-07-09T16:20:11.681Z,26.60
2018-07-09T16:22:40.573Z,26.40
2018-07-09T16:25:09.381Z,26.10
2018-07-09T16:27:38.216Z,26.00
2018-07-09T16:30:06.969Z,25.70
2018-07-09T16:32:35.673Z,25.50
2018-07-09T16:35:04.546Z,25.40
2018-07-09T16:37:33.409Z,25.20
2018-07-09T16:40:02.277Z,25.20
2018-07-09T16:42:31.046Z,25.10
2018-07-09T16:44:59.938Z,25.10
2018-07-09T16:47:28.849Z,25.20
2018-07-09T16:49:57.745Z,25.20
2018-07-09T16:54:55.067Z,25.00
2018-07-09T16:57:23.909Z,24.80
2018-07-09T16:59:52.693Z,24.80
2018-07-09T17:04:49.990Z,24.90
2018-07-09T17:07:18.858Z,25.00
2018-07-09T17:14:44.600Z,25.00
2018-07-09T17:17:13.297Z,24.90
2018-07-09T17:19:42.097Z,24.70
2018-07-09T17:22:10.986Z,24.50
2018-07-09T17:24:39.869Z,24.30
2018-07-09T17:27:08.743Z,24.10
2018-07-09T17:29:37.398Z,24.00
2018-07-09T17:32:06.487Z,23.90
2018-07-09T17:34:35.225Z,23.80
2018-07-09T17:37:04.098Z,23.80
2018-07-09T17:39:32.885Z,23.80
2018-07-09T17:42:05.293Z,23.90
2018-07-09T17:44:35.509Z,24.20
2018-07-09T17:47:04.261Z,24.80
2018-07-09T17:49:33.061Z,25.40
2018-07-09T17:52:01.911Z,25.60
2018-07-09T17:54:31.059Z,25.40
2018-07-09T17:57:01.818Z,25.30
2018-07-09T17:59:30.657Z,25.10
2018-07-09T18:01:59.474Z,24.90
2018-07-09T18:04:28.348Z,24.80
2018-07-09T18:06:57.101Z,24.80
2018-07-09T18:09:25.924Z,24.70
2018-07-09T18:11:54.789Z,24.60
2018-07-09T18:14:23.497Z,24.50
2018-07-09T18:16:52.292Z,24.50
2018-07-09T18:19:21.094Z,24.50
2018-07-09T18:21:49.870Z,24.50
2018-07-09T18:26:47.306Z,24.20
2018-07-09T18:29:20.153Z,24.10
2018-07-09T18:31:48.958Z,24.00
2018-07-09T18:34:17.790Z,23.90
2018-07-09T18:36:46.658Z,23.80
2018-07-09T18:39:27.238Z,23.70
2018-07-09T18:41:56.052Z,23.70
2018-07-09T18:44:24.837Z,23.60
2018-07-09T18:46:54.023Z,23.50
2018-07-09T18:49:22.860Z,23.40
2018-07-09T18:51:51.704Z,23.40
2018-07-09T18:54:21.293Z,23.30
2018-07-09T18:56:50.131Z,23.10
2018-07-09T18:59:18.886Z,23.10
2018-07-09T19:01:52.831Z,23.00
2018-07-09T19:04:21.572Z,23.00
2018-07-09T19:06:54.349Z,22.90
2018-07-09T19:09:23.952Z,22.90
2018-07-09T19:11:53.305Z,22.80
2018-07-09T19:14:53.572Z,22.70
2018-07-09T19:18:01.447Z,22.70
2018-07-09T19:20:41.860Z,22.60
2018-07-09T19:23:10.173Z,22.50
2018-07-09T19:25:38.505Z,22.50
2018-07-09T19:28:07.403Z,22.40
2018-07-09T19:30:35.257Z,22.40
2018-07-09T19:33:03.113Z,22.30
2018-07-09T19:35:30.928Z,22.30
2018-07-09T19:37:58.997Z,22.20
2018-07-09T19:40:26.787Z,22.20
2018-07-09T19:42:54.649Z,22.10
2018-07-09T19:45:22.419Z,22.10
2018-07-09T19:48:00.425Z,22.10
2018-07-09T19:50:28.234Z,22.10
2018-07-09T19:52:55.982Z,22.00
2018-07-09T19:55:23.761Z,22.00
2018-07-09T19:57:51.529Z,21.90
2018-07-09T20:00:19.391Z,21.90
2018-07-09T20:02:47.224Z,21.80
2018-07-09T20:05:16.030Z,21.80
2018-07-09T20:07:43.861Z,21.70
2018-07-09T20:10:16.986Z,21.70
2018-07-09T20:12:50.166Z,21.70
2018-07-09T20:15:23.238Z,21.60
2018-07-09T20:17:51.053Z,21.60
2018-07-09T20:20:33.316Z,21.60
2018-07-09T20:23:01.193Z,21.50
2018-07-09T20:25:32.917Z,21.50
2018-07-09T20:28:00.698Z,21.50
2018-07-09T20:30:28.489Z,21.40
2018-07-09T20:33:07.591Z,21.40
2018-07-09T20:35:40.295Z,21.30
2018-07-09T20:38:08.119Z,21.30
2018-07-09T20:40:39.813Z,21.30
2018-07-09T20:43:07.626Z,21.20
2018-07-09T20:45:35.511Z,21.20
2018-07-09T20:48:03.312Z,21.20
2018-07-09T20:50:31.129Z,21.10
2018-07-09T20:52:58.968Z,21.10
2018-07-09T20:55:26.810Z,21.10
2018-07-09T20:57:54.649Z,21.10
2018-07-09T21:00:22.462Z,21.10
2018-07-09T21:02:50.294Z,21.10
2018-07-09T21:05:18.153Z,21.10
2018-07-09T21:07:47.993Z,21.10
2018-07-09T21:10:15.784Z,21.10
2018-07-09T21:12:50.149Z,21.00
2018-07-09T21:15:18.185Z,21.00
2018-07-09T21:17:45.754Z,21.00
2018-07-09T21:20:13.722Z,21.00
2018-07-09T21:22:41.554Z,21.00
2018-07-09T21:25:09.406Z,21.00
2018-07-09T21:27:37.169Z,20.90
2018-07-09T21:30:09.110Z,20.90
2018-07-09T21:32:37.022Z,20.90
2018-07-09T21:35:05.209Z,20.80
2018-07-09T21:40:00.997Z,20.80
2018-07-09T21:42:28.781Z,20.80
2018-07-09T21:44:56.585Z,20.70
2018-07-09T21:47:24.677Z,20.70
2018-07-09T21:49:52.477Z,20.70
2018-07-09T21:52:20.298Z,20.70
2018-07-09T21:54:48.084Z,20.60
2018-07-09T21:57:15.917Z,20.60
2018-07-09T21:59:49.833Z,20.60
2018-07-09T22:02:17.582Z,20.60
2018-07-09T22:07:13.365Z,20.60
2018-07-09T22:09:41.163Z,20.60
2018-07-09T22:12:09.006Z,20.60
2018-07-09T22:14:36.842Z,20.60
2018-07-09T22:17:04.710Z,20.60
2018-07-09T22:19:32.497Z,20.60
2018-07-09T22:22:00.284Z,20.60
2018-07-09T22:24:28.113Z,20.60
2018-07-09T22:26:55.892Z,20.60
2018-07-09T22:29:23.685Z,20.60
2018-07-09T22:31:52.522Z,20.50
2018-07-09T22:34:21.365Z,20.50
2018-07-09T22:36:50.423Z,20.50
2018-07-09T22:39:19.264Z,20.50
2018-07-09T22:41:48.062Z,20.40
2018-07-09T22:44:18.861Z,20.40
2018-07-09T22:46:51.653Z,20.40
2018-07-09T22:49:20.777Z,20.40
2018-07-09T22:51:49.629Z,20.40
2018-07-09T22:54:18.434Z,20.40
2018-07-09T22:56:47.270Z,20.40
2018-07-09T22:59:16.074Z,20.30
2018-07-09T23:01:44.873Z,20.40
2018-07-09T23:04:13.754Z,20.40
2018-07-09T23:06:42.594Z,20.40
2018-07-09T23:10:21.349Z,20.40
2018-07-09T23:13:26.800Z,20.40
2018-07-09T23:16:06.938Z,20.40
2018-07-09T23:18:53.710Z,20.40
2018-07-09T23:22:28.247Z,20.40
2018-07-09T23:24:56.088Z,20.40
2018-07-09T23:27:23.901Z,20.40
2018-07-09T23:29:51.742Z,20.40
2018-07-09T23:32:19.576Z,20.30
2018-07-09T23:34:47.421Z,20.20
2018-07-09T23:37:15.253Z,20.20
2018-07-09T23:39:43.062Z,20.00
2018-07-09T23:42:10.954Z,20.00
2018-07-09T23:44:38.881Z,19.90
2018-07-09T23:47:06.696Z,19.80
2018-07-09T23:49:34.533Z,19.60
2018-07-09T23:52:02.377Z,19.50
2018-07-09T23:54:30.157Z,19.60
2018-07-09T23:57:12.821Z,19.50
2018-07-09T23:59:53.219Z,19.50
